Time;durP1;ratioP1;P1;durP2;ratioP2;P2;SDS_P1;SDS_P2;PMS_P1;PMS_P2;Temp;Humidity;BMP_temperature;BMP_pressure;BME280_temperature;BME280_humidity;BME280_pressure;Samples;Min_cycle;Max_cycle;Signal;HPM_P1;HPM_P2
2023/08/22 00:00:17;;;;;;;;;;;25.50;58.20;;;;;;1542706;75;1102;-56
2023/08/22 00:02:18;;;;;;;;;;;25.50;58.10;;;;;;1543093;75;767;-56
2023/08/22 00:04:21;;;;;;;;;;;25.50;58.40;;;;;;1551666;75;589;-57
2023/08/22 00:06:23;;;;;;;;;;;25.50;58.20;;;;;;1547242;75;755;-56
2023/08/22 00:08:25;;;;;;;;;;;25.50;58.50;;;;;;1545618;75;1328;-57
2023/08/22 00:10:27;;;;;;;;;;;25.50;58.40;;;;;;1555277;75;1939;-57
2023/08/22 00:12:29;;;;;;;;;;;25.60;58.60;;;;;;1545955;75;777;-57
2023/08/22 00:14:31;;;;;;;;;;;25.60;58.80;;;;;;1547343;75;743;-58
2023/08/22 00:16:33;;;;;;;;;;;25.50;58.90;;;;;;1539962;75;672;-57
2023/08/22 00:18:35;;;;;;;;;;;25.60;59.30;;;;;;1554356;75;803;-54
2023/08/22 00:20:37;;;;;;;;;;;25.50;59.20;;;;;;1543913;75;1136;-54
2023/08/22 00:22:39;;;;;;;;;;;25.50;59.40;;;;;;1546808;75;1532;-55
2023/08/22 00:24:41;;;;;;;;;;;25.60;59.80;;;;;;1545567;75;748;-57
2023/08/22 00:26:43;;;;;;;;;;;25.60;59.80;;;;;;1542083;75;775;-56
2023/08/22 00:28:45;;;;;;;;;;;25.50;59.70;;;;;;1551321;75;727;-56
2023/08/22 00:30:47;;;;;;;;;;;25.50;60.00;;;;;;1546812;75;1947;-57
2023/08/22 00:32:48;;;;;;;;;;;25.50;59.80;;;;;;1541409;75;769;-56
2023/08/22 00:34:50;;;;;;;;;;;25.50;59.70;;;;;;1549965;75;765;-55
2023/08/22 00:36:52;;;;;;;;;;;25.50;59.70;;;;;;1549492;75;1573;-54
2023/08/22 00:38:54;;;;;;;;;;;25.50;59.60;;;;;;1542999;75;1137;-57
2023/08/22 00:40:56;;;;;;;;;;;25.50;59.60;;;;;;1540008;75;814;-57
2023/08/22 00:42:58;;;;;;;;;;;25.50;59.70;;;;;;1556998;75;794;-57
2023/08/22 00:45:00;;;;;;;;;;;25.50;59.70;;;;;;1549521;75;749;-57
2023/08/22 00:47:02;;;;;;;;;;;25.50;59.70;;;;;;1547914;75;757;-57
2023/08/22 00:49:05;;;;;;;;;;;25.50;59.70;;;;;;1538381;75;1155;-57
2023/08/22 00:51:07;;;;;;;;;;;25.50;59.90;;;;;;1533728;75;1932;-55
2023/08/22 00:53:08;;;;;;;;;;;25.50;59.80;;;;;;1530677;75;785;-56
2023/08/22 00:55:10;;;;;;;;;;;25.50;59.80;;;;;;1522693;76;743;-55
2023/08/22 00:57:12;;;;;;;;;;;25.50;59.80;;;;;;1545122;75;701;-55
2023/08/22 00:59:14;;;;;;;;;;;25.60;59.90;;;;;;1556069;75;1157;-53
2023/08/22 01:01:16;;;;;;;;;;;25.50;59.80;;;;;;1525108;76;849;-56
2023/08/22 01:03:18;;;;;;;;;;;25.50;59.80;;;;;;1524406;76;713;-56
2023/08/22 01:05:20;;;;;;;;;;;25.50;59.80;;;;;;1541875;76;1265;-57
2023/08/22 01:07:23;;;;;;;;;;;25.50;59.80;;;;;;1526191;76;699;-55
2023/08/22 01:09:30;;;;;;;;;;;25.50;59.70;;;;;;1533385;76;1734;-56
2023/08/22 01:11:33;;;;;;;;;;;25.50;59.80;;;;;;1543079;75;1936;-56
2023/08/22 01:13:35;;;;;;;;;;;25.50;59.70;;;;;;1534515;75;1767;-54
2023/08/22 01:15:37;;;;;;;;;;;25.50;59.70;;;;;;1522207;77;754;-56
2023/08/22 01:17:39;;;;;;;;;;;25.50;59.80;;;;;;1526748;77;696;-57
2023/08/22 01:19:41;;;;;;;;;;;25.50;59.70;;;;;;1539065;75;1641;-55
2023/08/22 01:21:44;;;;;;;;;;;25.60;59.70;;;;;;1555693;75;724;-57
2023/08/22 01:23:46;;;;;;;;;;;25.50;59.70;;;;;;1556253;75;1277;-57
2023/08/22 01:25:48;;;;;;;;;;;25.50;59.70;;;;;;1524627;76;672;-55
2023/08/22 01:28:11;;;;;;;;;;;25.50;59.70;;;;;;1514402;78;715;-56
2023/08/22 01:30:15;;;;;;;;;;;25.50;59.70;;;;;;1546928;75;1077;-56
2023/08/22 01:32:18;;;;;;;;;;;25.50;59.70;;;;;;1544197;75;1927;-54
2023/08/22 01:34:21;;;;;;;;;;;25.50;59.60;;;;;;1538618;75;1828;-55
2023/08/22 01:36:23;;;;;;;;;;;25.50;59.60;;;;;;1519476;76;675;-54
2023/08/22 01:38:26;;;;;;;;;;;25.50;59.50;;;;;;1515987;77;695;-53
2023/08/22 01:40:28;;;;;;;;;;;25.50;59.50;;;;;;1548877;75;1167;-57
2023/08/22 01:42:30;;;;;;;;;;;25.50;59.60;;;;;;1541223;76;924;-55
2023/08/22 01:44:32;;;;;;;;;;;25.50;59.60;;;;;;1545048;75;789;-55
2023/08/22 01:46:34;;;;;;;;;;;25.50;59.60;;;;;;1532509;77;1569;-55
2023/08/22 01:48:36;;;;;;;;;;;25.40;59.50;;;;;;1506811;78;671;-57
2023/08/22 01:50:38;;;;;;;;;;;25.50;59.40;;;;;;1550362;75;1156;-55
2023/08/22 01:52:39;;;;;;;;;;;25.50;59.40;;;;;;1556084;75;1927;-55
2023/08/22 01:54:41;;;;;;;;;;;25.40;59.40;;;;;;1513648;76;727;-57
2023/08/22 01:56:44;;;;;;;;;;;25.50;59.40;;;;;;1554996;75;737;-56
2023/08/22 01:58:46;;;;;;;;;;;25.50;59.40;;;;;;1550334;75;766;-57
2023/08/22 02:00:48;;;;;;;;;;;25.40;59.40;;;;;;1553109;75;1703;-57
2023/08/22 02:02:50;;;;;;;;;;;25.50;59.30;;;;;;1547803;75;772;-53
2023/08/22 02:04:51;;;;;;;;;;;25.40;59.20;;;;;;1542630;75;704;-57
2023/08/22 02:06:53;;;;;;;;;;;25.50;59.20;;;;;;1547097;75;720;-54
2023/08/22 02:08:55;;;;;;;;;;;25.40;59.20;;;;;;1538742;75;1136;-57
2023/08/22 02:10:57;;;;;;;;;;;25.40;59.20;;;;;;1545344;75;777;-57
2023/08/22 02:12:59;;;;;;;;;;;25.50;59.20;;;;;;1534295;75;1948;-56
2023/08/22 02:15:01;;;;;;;;;;;25.50;59.20;;;;;;1541498;75;1517;-56
2023/08/22 02:17:03;;;;;;;;;;;25.50;59.20;;;;;;1548668;75;731;-55
2023/08/22 02:19:05;;;;;;;;;;;25.40;59.10;;;;;;1550595;75;1139;-55
2023/08/22 02:21:07;;;;;;;;;;;25.40;59.10;;;;;;1542693;75;719;-55
2023/08/22 02:23:09;;;;;;;;;;;25.40;59.10;;;;;;1550195;75;777;-57
2023/08/22 02:25:11;;;;;;;;;;;25.40;59.00;;;;;;1545151;75;779;-55
2023/08/22 02:27:13;;;;;;;;;;;25.30;59.00;;;;;;1553643;75;763;-54
2023/08/22 02:29:16;;;;;;;;;;;25.40;58.90;;;;;;1541033;75;1435;-55
2023/08/22 02:31:18;;;;;;;;;;;25.40;59.00;;;;;;1548034;75;1913;-57
2023/08/22 02:33:19;;;;;;;;;;;25.40;59.00;;;;;;1549208;75;736;-56
2023/08/22 02:35:21;;;;;;;;;;;25.40;58.90;;;;;;1552528;75;683;-54
2023/08/22 02:37:23;;;;;;;;;;;25.40;58.90;;;;;;1537696;75;810;-55
2023/08/22 02:39:25;;;;;;;;;;;25.40;58.90;;;;;;1543794;74;1174;-54
2023/08/22 02:41:27;;;;;;;;;;;25.40;58.90;;;;;;1541846;75;790;-56
2023/08/22 02:43:30;;;;;;;;;;;25.40;58.80;;;;;;1545399;75;1521;-57
2023/08/22 02:45:32;;;;;;;;;;;25.40;58.80;;;;;;1551137;75;813;-57
2023/08/22 02:47:34;;;;;;;;;;;25.40;58.70;;;;;;1543533;75;777;-55
2023/08/22 02:49:36;;;;;;;;;;;25.40;58.60;;;;;;1546961;75;1183;-55
2023/08/22 02:51:37;;;;;;;;;;;25.40;58.70;;;;;;1547183;75;1932;-57
2023/08/22 02:53:39;;;;;;;;;;;25.40;58.70;;;;;;1547620;75;733;-55
2023/08/22 02:55:41;;;;;;;;;;;25.40;58.60;;;;;;1540841;75;669;-56
2023/08/22 02:57:43;;;;;;;;;;;25.40;58.60;;;;;;1545187;75;1434;-53
2023/08/22 02:59:45;;;;;;;;;;;25.40;58.60;;;;;;1527357;75;1135;-54
2023/08/22 03:01:47;;;;;;;;;;;25.40;58.50;;;;;;1539721;75;665;-57
2023/08/22 03:03:50;;;;;;;;;;;25.40;58.60;;;;;;1538235;75;701;-56
2023/08/22 03:05:52;;;;;;;;;;;25.40;58.60;;;;;;1537231;75;711;-54
2023/08/22 03:07:54;;;;;;;;;;;25.40;58.60;;;;;;1541311;75;669;-57
2023/08/22 03:09:55;;;;;;;;;;;25.30;58.50;;;;;;1533059;75;1123;-56
2023/08/22 03:11:57;;;;;;;;;;;25.30;58.40;;;;;;1546390;75;1935;-56
2023/08/22 03:14:00;;;;;;;;;;;25.40;58.40;;;;;;1546364;75;687;-56
2023/08/22 03:16:02;;;;;;;;;;;25.30;58.40;;;;;;1533281;75;784;-55
2023/08/22 03:18:04;;;;;;;;;;;25.40;58.40;;;;;;1545543;75;709;-54
2023/08/22 03:20:07;;;;;;;;;;;25.30;58.40;;;;;;1546651;74;1171;-54
2023/08/22 03:22:09;;;;;;;;;;;25.30;58.40;;;;;;1531428;75;677;-55
2023/08/22 03:24:10;;;;;;;;;;;25.30;58.40;;;;;;1533171;75;734;-57
2023/08/22 03:26:13;;;;;;;;;;;25.40;58.30;;;;;;1546651;75;1496;-58
2023/08/22 03:28:15;;;;;;;;;;;25.40;58.20;;;;;;1548779;75;778;-57
2023/08/22 03:30:17;;;;;;;;;;;25.30;58.20;;;;;;1541268;75;1148;-57
2023/08/22 03:32:19;;;;;;;;;;;25.40;58.20;;;;;;1555516;75;1917;-57
2023/08/22 03:34:21;;;;;;;;;;;25.40;58.20;;;;;;1552301;75;797;-56
2023/08/22 03:36:22;;;;;;;;;;;25.30;58.30;;;;;;1555497;75;664;-55
2023/08/22 03:38:25;;;;;;;;;;;25.40;58.10;;;;;;1539060;75;786;-55
2023/08/22 03:40:27;;;;;;;;;;;25.30;58.10;;;;;;1545712;75;1655;-56
2023/08/22 03:42:29;;;;;;;;;;;25.30;58.10;;;;;;1550797;75;793;-55
2023/08/22 03:44:31;;;;;;;;;;;25.30;58.20;;;;;;1541872;75;760;-56
2023/08/22 03:46:33;;;;;;;;;;;25.30;58.10;;;;;;1546283;75;716;-54
2023/08/22 03:48:35;;;;;;;;;;;25.30;58.30;;;;;;1529809;75;759;-57
2023/08/22 03:50:39;;;;;;;;;;;25.30;58.30;;;;;;1549657;74;1144;-55
2023/08/22 03:52:41;;;;;;;;;;;25.30;58.20;;;;;;1552793;75;1905;-57
2023/08/22 03:54:43;;;;;;;;;;;25.30;58.20;;;;;;1535920;76;712;-56
2023/08/22 03:56:45;;;;;;;;;;;25.30;58.20;;;;;;1550179;76;783;-55
2023/08/22 03:58:46;;;;;;;;;;;25.30;58.20;;;;;;1525692;76;879;-57
2023/08/22 04:00:48;;;;;;;;;;;25.30;58.20;;;;;;1524537;76;1147;-54
2023/08/22 04:02:52;;;;;;;;;;;25.30;58.20;;;;;;1526090;76;710;-56
2023/08/22 04:04:55;;;;;;;;;;;25.30;58.20;;;;;;1525671;76;1763;-57
2023/08/22 04:06:57;;;;;;;;;;;25.30;58.20;;;;;;1516337;76;1506;-57
2023/08/22 04:08:59;;;;;;;;;;;25.30;58.10;;;;;;1513981;76;1222;-57
2023/08/22 04:11:01;;;;;;;;;;;25.30;58.10;;;;;;1541421;75;944;-57
2023/08/22 04:13:03;;;;;;;;;;;25.30;58.10;;;;;;1558810;75;1948;-54
2023/08/22 04:15:05;;;;;;;;;;;25.30;58.10;;;;;;1523535;78;675;-54
2023/08/22 04:17:07;;;;;;;;;;;25.30;58.10;;;;;;1537712;75;810;-54
2023/08/22 04:19:09;;;;;;;;;;;25.30;58.00;;;;;;1549276;75;1143;-54
2023/08/22 04:21:11;;;;;;;;;;;25.30;58.00;;;;;;1545020;75;1544;-54
2023/08/22 04:23:13;;;;;;;;;;;25.30;58.00;;;;;;1540436;75;815;-54
2023/08/22 04:25:15;;;;;;;;;;;25.20;58.00;;;;;;1542431;75;791;-57
2023/08/22 04:27:18;;;;;;;;;;;25.30;57.90;;;;;;1550184;75;809;-55
2023/08/22 04:29:20;;;;;;;;;;;25.30;57.90;;;;;;1542678;75;1153;-55
2023/08/22 04:31:22;;;;;;;;;;;25.30;57.80;;;;;;1543287;75;719;-57
2023/08/22 04:33:23;;;;;;;;;;;25.30;57.80;;;;;;1534128;75;1950;-57
2023/08/22 04:35:25;;;;;;;;;;;25.30;57.80;;;;;;1544695;75;1544;-57
2023/08/22 04:37:28;;;;;;;;;;;25.20;57.80;;;;;;1534369;75;717;-56
2023/08/22 04:39:30;;;;;;;;;;;25.30;57.80;;;;;;1539351;75;1134;-56
2023/08/22 04:41:32;;;;;;;;;;;25.30;57.80;;;;;;1550693;75;770;-57
2023/08/22 04:43:34;;;;;;;;;;;25.20;57.80;;;;;;1549860;75;770;-57
2023/08/22 04:45:36;;;;;;;;;;;25.20;57.70;;;;;;1538990;75;737;-57
2023/08/22 04:47:38;;;;;;;;;;;25.30;57.80;;;;;;1542599;75;668;-56
2023/08/22 04:49:40;;;;;;;;;;;25.30;57.70;;;;;;1539112;75;1611;-53
2023/08/22 04:51:41;;;;;;;;;;;25.30;57.70;;;;;;1556073;75;745;-55
2023/08/22 04:53:46;;;;;;;;;;;25.20;57.70;;;;;;1541276;75;1948;-55
2023/08/22 04:55:47;;;;;;;;;;;25.30;57.70;;;;;;1559143;75;1695;-55
2023/08/22 04:57:49;;;;;;;;;;;25.30;57.80;;;;;;1546950;75;706;-56
2023/08/22 04:59:52;;;;;;;;;;;25.20;57.80;;;;;;1527337;75;1142;-53
2023/08/22 05:01:54;;;;;;;;;;;25.30;57.80;;;;;;1530660;75;699;-57
2023/08/22 05:03:56;;;;;;;;;;;25.30;57.70;;;;;;1542316;75;1613;-57
2023/08/22 05:05:58;;;;;;;;;;;25.30;57.70;;;;;;1541818;75;708;-55
2023/08/22 05:08:00;;;;;;;;;;;25.30;57.80;;;;;;1547230;75;673;-57
2023/08/22 05:10:02;;;;;;;;;;;25.20;57.80;;;;;;1554691;75;1136;-55
2023/08/22 05:12:04;;;;;;;;;;;25.20;57.80;;;;;;1539201;75;699;-55
2023/08/22 05:14:07;;;;;;;;;;;25.20;57.80;;;;;;1523921;77;1941;-57
2023/08/22 05:16:09;;;;;;;;;;;25.30;57.80;;;;;;1527292;76;681;-55
2023/08/22 05:18:11;;;;;;;;;;;25.30;57.80;;;;;;1519895;78;1529;-56
2023/08/22 05:20:13;;;;;;;;;;;25.30;57.90;;;;;;1520743;76;1131;-56
2023/08/22 05:22:15;;;;;;;;;;;25.30;57.90;;;;;;1525408;76;786;-57
2023/08/22 05:24:16;;;;;;;;;;;25.20;57.90;;;;;;1529156;76;642;-54
2023/08/22 05:26:18;;;;;;;;;;;25.40;58.00;;;;;;1526790;76;704;-54
2023/08/22 05:28:20;;;;;;;;;;;25.30;58.00;;;;;;1551481;75;742;-56
2023/08/22 05:30:22;;;;;;;;;;;25.30;57.90;;;;;;1549272;75;1090;-55
2023/08/22 05:32:24;;;;;;;;;;;25.30;57.80;;;;;;1562632;75;1947;-55
2023/08/22 05:34:26;;;;;;;;;;;25.40;57.80;;;;;;1540475;75;738;-56
2023/08/22 05:36:28;;;;;;;;;;;25.40;57.80;;;;;;1532660;75;742;-55
2023/08/22 05:38:31;;;;;;;;;;;25.50;57.60;;;;;;1539008;75;725;-56
2023/08/22 05:40:33;;;;;;;;;;;25.50;57.70;;;;;;1538572;75;1158;-55
2023/08/22 05:42:35;;;;;;;;;;;25.40;57.60;;;;;;1549102;75;773;-56
2023/08/22 05:44:37;;;;;;;;;;;25.60;57.30;;;;;;1539320;75;683;-54
2023/08/22 05:46:38;;;;;;;;;;;25.60;57.10;;;;;;1548942;75;1369;-56
2023/08/22 05:48:40;;;;;;;;;;;25.60;56.80;;;;;;1535685;75;697;-55
2023/08/22 05:50:42;;;;;;;;;;;25.70;56.50;;;;;;1538380;74;1137;-56
2023/08/22 05:52:44;;;;;;;;;;;25.70;56.30;;;;;;1538616;75;1924;-57
2023/08/22 05:54:46;;;;;;;;;;;25.70;56.50;;;;;;1537643;75;750;-58
2023/08/22 05:56:49;;;;;;;;;;;25.70;56.20;;;;;;1526294;76;739;-57
2023/08/22 05:58:50;;;;;;;;;;;25.80;56.00;;;;;;1535428;76;741;-57
2023/08/22 06:00:52;;;;;;;;;;;25.90;55.90;;;;;;1527095;76;1487;-57
2023/08/22 06:02:54;;;;;;;;;;;25.90;55.80;;;;;;1542703;75;733;-57
2023/08/22 06:04:56;;;;;;;;;;;25.90;55.70;;;;;;1543186;75;797;-54
2023/08/22 06:06:58;;;;;;;;;;;26.00;56.00;;;;;;1541549;75;783;-58
2023/08/22 06:09:00;;;;;;;;;;;26.00;56.00;;;;;;1556868;75;1141;-56
2023/08/22 06:11:02;;;;;;;;;;;26.00;55.80;;;;;;1509028;77;737;-54
2023/08/22 06:13:04;;;;;;;;;;;26.00;55.70;;;;;;1541436;75;1932;-57
2023/08/22 06:15:06;;;;;;;;;;;26.10;55.60;;;;;;1549037;75;1570;-57
2023/08/22 06:17:09;;;;;;;;;;;26.10;55.50;;;;;;1534643;76;708;-55
2023/08/22 06:19:11;;;;;;;;;;;26.10;55.40;;;;;;1545144;75;1150;-57
2023/08/22 06:21:12;;;;;;;;;;;26.10;55.20;;;;;;1545581;75;729;-54
2023/08/22 06:23:14;;;;;;;;;;;26.30;55.20;;;;;;1536113;75;733;-56
2023/08/22 06:25:16;;;;;;;;;;;26.30;55.00;;;;;;1557154;75;1176;-57
2023/08/22 06:27:18;;;;;;;;;;;26.30;54.80;;;;;;1551928;75;756;-57
2023/08/22 06:29:20;;;;;;;;;;;26.30;54.60;;;;;;1546090;75;1648;-57
2023/08/22 06:31:22;;;;;;;;;;;26.40;54.40;;;;;;1548751;75;770;-57
2023/08/22 06:33:24;;;;;;;;;;;26.30;54.30;;;;;;1544203;75;1918;-54
2023/08/22 06:35:28;;;;;;;;;;;26.40;54.10;;;;;;1531489;75;774;-56
2023/08/22 06:37:29;;;;;;;;;;;26.50;54.10;;;;;;1536043;75;765;-58
2023/08/22 06:39:31;;;;;;;;;;;26.40;54.00;;;;;;1537314;75;1152;-57
2023/08/22 06:41:35;;;;;;;;;;;26.50;54.00;;;;;;1538266;75;1568;-57
2023/08/22 06:43:37;;;;;;;;;;;26.50;54.00;;;;;;1558166;75;1684;-55
2023/08/22 06:45:39;;;;;;;;;;;26.50;53.90;;;;;;1521894;76;691;-54
2023/08/22 06:47:41;;;;;;;;;;;26.50;53.90;;;;;;1525485;76;757;-54
2023/08/22 06:49:43;;;;;;;;;;;26.50;53.90;;;;;;1529131;77;1127;-54
2023/08/22 06:51:44;;;;;;;;;;;26.50;53.90;;;;;;1557030;75;745;-57
2023/08/22 06:53:47;;;;;;;;;;;26.50;54.00;;;;;;1515530;78;1930;-57
2023/08/22 06:55:49;;;;;;;;;;;26.50;53.90;;;;;;1545433;75;1244;-54
2023/08/22 06:57:51;;;;;;;;;;;26.50;53.80;;;;;;1546733;75;725;-56
2023/08/22 06:59:53;;;;;;;;;;;26.50;53.80;;;;;;1556740;74;1173;-56
2023/08/22 07:01:55;;;;;;;;;;;26.50;53.70;;;;;;1542524;75;889;-58
2023/08/22 07:03:57;;;;;;;;;;;26.50;53.80;;;;;;1547400;75;704;-54
2023/08/22 07:05:58;;;;;;;;;;;26.50;53.80;;;;;;1542932;75;771;-56
2023/08/22 07:08:00;;;;;;;;;;;26.50;53.80;;;;;;1548719;75;695;-55
2023/08/22 07:10:04;;;;;;;;;;;26.50;53.80;;;;;;1551941;75;1520;-54
2023/08/22 07:12:06;;;;;;;;;;;26.50;53.80;;;;;;1551743;75;743;-57
2023/08/22 07:14:09;;;;;;;;;;;26.60;53.90;;;;;;1543815;75;1901;-54
2023/08/22 07:16:10;;;;;;;;;;;26.50;53.80;;;;;;1534469;75;827;-54
2023/08/22 07:18:12;;;;;;;;;;;26.50;53.90;;;;;;1542243;75;900;-56
2023/08/22 07:20:14;;;;;;;;;;;26.50;53.90;;;;;;1536332;75;1142;-55
2023/08/22 07:22:16;;;;;;;;;;;26.40;54.00;;;;;;1552281;75;703;-56
2023/08/22 07:24:18;;;;;;;;;;;26.40;54.00;;;;;;1546222;75;1545;-54
2023/08/22 07:26:20;;;;;;;;;;;26.40;54.10;;;;;;1538814;75;713;-54
2023/08/22 07:28:22;;;;;;;;;;;26.40;54.20;;;;;;1541032;75;758;-55
2023/08/22 07:30:23;;;;;;;;;;;26.40;54.20;;;;;;1552037;75;1125;-57
2023/08/22 07:32:25;;;;;;;;;;;26.40;54.20;;;;;;1544205;75;801;-57
2023/08/22 07:34:27;;;;;;;;;;;26.40;54.20;;;;;;1538095;75;1936;-57
2023/08/22 07:36:29;;;;;;;;;;;26.50;54.20;;;;;;1539118;75;712;-57
2023/08/22 07:38:31;;;;;;;;;;;26.40;54.10;;;;;;1541318;75;1347;-55
2023/08/22 07:40:34;;;;;;;;;;;26.40;54.10;;;;;;1548941;75;1149;-56
2023/08/22 07:42:36;;;;;;;;;;;26.40;54.10;;;;;;1534918;75;1843;-55
2023/08/22 07:44:38;;;;;;;;;;;26.40;54.10;;;;;;1543606;75;697;-57
2023/08/22 07:46:40;;;;;;;;;;;26.40;54.20;;;;;;1536887;75;713;-57
2023/08/22 07:48:42;;;;;;;;;;;26.40;54.10;;;;;;1536808;75;718;-57
2023/08/22 07:50:44;;;;;;;;;;;26.30;54.20;;;;;;1548641;75;1102;-57
2023/08/22 07:52:46;;;;;;;;;;;26.30;54.10;;;;;;1553279;75;1506;-57
2023/08/22 07:54:48;;;;;;;;;;;26.30;54.10;;;;;;1543043;75;1924;-54
2023/08/22 07:56:49;;;;;;;;;;;26.30;54.10;;;;;;1546649;75;822;-55
2023/08/22 07:58:51;;;;;;;;;;;26.40;54.10;;;;;;1549238;75;1160;-57
2023/08/22 08:00:53;;;;;;;;;;;26.30;54.10;;;;;;1516926;76;722;-56
2023/08/22 08:02:55;;;;;;;;;;;26.30;54.20;;;;;;1551242;75;652;-54
2023/08/22 08:04:57;;;;;;;;;;;26.40;54.20;;;;;;1504113;78;786;-57
2023/08/22 08:06:59;;;;;;;;;;;26.30;54.20;;;;;;1549956;75;1551;-54
2023/08/22 08:09:02;;;;;;;;;;;26.30;54.30;;;;;;1534350;76;1071;-57
2023/08/22 08:11:04;;;;;;;;;;;26.30;54.30;;;;;;1546578;75;728;-57
2023/08/22 08:13:06;;;;;;;;;;;26.30;54.40;;;;;;1557200;75;760;-57
2023/08/22 08:15:08;;;;;;;;;;;26.30;54.40;;;;;;1517658;76;1934;-55
2023/08/22 08:17:10;;;;;;;;;;;26.30;54.60;;;;;;1549195;75;660;-56
2023/08/22 08:19:13;;;;;;;;;;;26.30;54.60;;;;;;1553964;75;1139;-56
2023/08/22 08:21:15;;;;;;;;;;;26.30;54.60;;;;;;1546931;75;1371;-54
2023/08/22 08:23:17;;;;;;;;;;;26.30;54.50;;;;;;1552860;75;807;-56
2023/08/22 08:25:18;;;;;;;;;;;26.30;54.50;;;;;;1545080;75;730;-57
2023/08/22 08:27:21;;;;;;;;;;;26.30;54.60;;;;;;1548073;75;679;-57
2023/08/22 08:29:23;;;;;;;;;;;26.30;54.60;;;;;;1555141;74;1140;-56
2023/08/22 08:31:25;;;;;;;;;;;26.30;54.70;;;;;;1550414;75;687;-55
2023/08/22 08:33:26;;;;;;;;;;;26.30;54.70;;;;;;1543739;75;752;-54
2023/08/22 08:35:28;;;;;;;;;;;26.30;54.70;;;;;;1537457;75;1923;-57
2023/08/22 08:37:30;;;;;;;;;;;26.30;54.80;;;;;;1557124;75;808;-56
2023/08/22 08:39:32;;;;;;;;;;;26.30;54.70;;;;;;1543351;75;1127;-56
2023/08/22 08:41:34;;;;;;;;;;;26.30;54.80;;;;;;1533789;75;769;-56
2023/08/22 08:43:36;;;;;;;;;;;26.30;54.80;;;;;;1551898;75;792;-56
2023/08/22 08:45:38;;;;;;;;;;;26.30;55.00;;;;;;1541295;75;774;-57
2023/08/22 08:47:40;;;;;;;;;;;26.30;54.90;;;;;;1554862;75;738;-55
2023/08/22 08:49:42;;;;;;;;;;;26.30;55.00;;;;;;1547923;75;1514;-55
2023/08/22 08:51:44;;;;;;;;;;;26.30;55.00;;;;;;1562515;75;812;-57
2023/08/22 08:53:46;;;;;;;;;;;26.30;55.00;;;;;;1539621;75;1943;-56
2023/08/22 08:55:47;;;;;;;;;;;26.30;55.00;;;;;;1541744;75;779;-57
2023/08/22 08:57:49;;;;;;;;;;;26.20;55.10;;;;;;1540485;75;735;-56
2023/08/22 08:59:51;;;;;;;;;;;26.30;55.10;;;;;;1547238;74;1250;-55
2023/08/22 09:01:53;;;;;;;;;;;26.30;55.10;;;;;;1543305;75;841;-55
2023/08/22 09:03:55;;;;;;;;;;;26.20;55.20;;;;;;1548631;75;1583;-56
2023/08/22 09:05:57;;;;;;;;;;;26.30;55.20;;;;;;1549504;75;807;-54
2023/08/22 09:08:00;;;;;;;;;;;26.30;55.30;;;;;;1564478;75;820;-57
2023/08/22 09:10:02;;;;;;;;;;;26.30;55.40;;;;;;1526402;75;1618;-55
2023/08/22 09:12:05;;;;;;;;;;;26.30;55.40;;;;;;1556449;75;724;-57
2023/08/22 09:14:07;;;;;;;;;;;26.30;55.50;;;;;;1517247;76;1913;-57
2023/08/22 09:16:09;;;;;;;;;;;26.30;55.40;;;;;;1545480;75;1524;-54
2023/08/22 09:18:12;;;;;;;;;;;26.30;55.40;;;;;;1548201;75;817;-57
2023/08/22 09:20:15;;;;;;;;;;;26.20;55.40;;;;;;1538176;75;1133;-56
2023/08/22 09:22:17;;;;;;;;;;;26.30;55.50;;;;;;1547736;75;803;-54
2023/08/22 09:24:18;;;;;;;;;;;26.30;55.50;;;;;;1536239;75;757;-54
2023/08/22 09:26:26;;;;;;;;;;;26.30;55.50;;;;;;1556731;75;815;-56
2023/08/22 09:28:24;;;;;;;;;;;26.30;55.60;;;;;;1532982;75;1583;-57
2023/08/22 09:30:26;;;;;;;;;;;26.30;55.70;;;;;;1551297;75;1522;-56
2023/08/22 09:32:28;;;;;;;;;;;26.20;55.80;;;;;;1548411;75;816;-57
2023/08/22 09:34:30;;;;;;;;;;;26.20;55.80;;;;;;1535615;75;1935;-55
2023/08/22 09:36:32;;;;;;;;;;;26.30;55.80;;;;;;1533432;75;720;-57
2023/08/22 09:38:34;;;;;;;;;;;26.20;55.90;;;;;;1538704;75;713;-56
2023/08/22 09:40:36;;;;;;;;;;;26.30;56.00;;;;;;1528023;76;1138;-56
2023/08/22 09:42:38;;;;;;;;;;;26.30;56.00;;;;;;1548622;75;752;-54
2023/08/22 09:44:40;;;;;;;;;;;26.20;56.00;;;;;;1542639;75;1433;-54
2023/08/22 09:46:42;;;;;;;;;;;26.20;56.10;;;;;;1536881;75;787;-54
2023/08/22 09:48:44;;;;;;;;;;;26.20;56.20;;;;;;1554335;75;668;-57
2023/08/22 09:50:46;;;;;;;;;;;26.30;56.20;;;;;;1533774;75;1083;-56
2023/08/22 09:52:48;;;;;;;;;;;26.20;56.20;;;;;;1545660;75;709;-57
2023/08/22 09:54:49;;;;;;;;;;;26.20;56.30;;;;;;1535639;75;1942;-57
2023/08/22 09:56:51;;;;;;;;;;;26.20;56.50;;;;;;1545382;75;935;-57
2023/08/22 09:58:53;;;;;;;;;;;26.30;56.40;;;;;;1539295;75;1517;-56
2023/08/22 10:00:56;;;;;;;;;;;26.30;56.60;;;;;;1552323;75;877;-54
2023/08/22 10:02:58;;;;;;;;;;;26.20;56.60;;;;;;1546953;75;738;-57
2023/08/22 10:05:00;;;;;;;;;;;26.20;56.70;;;;;;1550593;75;782;-55
2023/08/22 10:07:02;;;;;;;;;;;26.30;56.80;;;;;;1540613;75;762;-55
2023/08/22 10:09:11;;;;;;;;;;;26.30;56.80;;;;;;1544361;75;1118;-54
2023/08/22 10:11:09;;;;;;;;;;;26.20;56.80;;;;;;1537161;75;1818;-57
2023/08/22 10:13:11;;;;;;;;;;;26.30;56.90;;;;;;1551315;75;1541;-57
2023/08/22 10:15:14;;;;;;;;;;;26.20;56.80;;;;;;1547753;75;1939;-57
2023/08/22 10:17:16;;;;;;;;;;;26.20;56.80;;;;;;1545520;75;743;-57
2023/08/22 10:19:20;;;;;;;;;;;26.30;56.80;;;;;;1542395;75;1093;-57
2023/08/22 10:21:24;;;;;;;;;;;26.20;56.80;;;;;;1552398;75;773;-56
2023/08/22 10:23:44;;;;;;;;;;;26.20;57.00;;;;;;1549602;75;708;-57
2023/08/22 10:25:47;;;;;;;;;;;26.30;56.90;;;;;;1543526;75;718;-55
2023/08/22 10:27:49;;;;;;;;;;;26.30;56.90;;;;;;1547059;75;1517;-55
2023/08/22 10:29:52;;;;;;;;;;;26.20;57.00;;;;;;1544093;75;1120;-57
2023/08/22 10:32:02;;;;;;;;;;;26.20;57.00;;;;;;1508120;77;1461;-57
2023/08/22 10:34:04;;;;;;;;;;;26.20;56.90;;;;;;1553426;75;738;-57
2023/08/22 10:36:07;;;;;;;;;;;26.20;57.10;;;;;;1538958;75;1941;-56
2023/08/22 10:38:09;;;;;;;;;;;26.20;57.10;;;;;;1554877;75;852;-55
2023/08/22 10:40:11;;;;;;;;;;;26.30;57.20;;;;;;1522894;76;1135;-55
2023/08/22 10:42:15;;;;;;;;;;;26.20;57.30;;;;;;1558011;75;1434;-57
2023/08/22 10:44:18;;;;;;;;;;;26.30;57.20;;;;;;1575706;75;807;-55
2023/08/22 10:46:20;;;;;;;;;;;26.30;57.40;;;;;;1567816;75;1019;-56
2023/08/22 10:48:22;;;;;;;;;;;26.20;57.40;;;;;;1567694;75;778;-57
2023/08/22 10:50:24;;;;;;;;;;;26.20;57.50;;;;;;1572751;74;1088;-57
2023/08/22 10:52:26;;;;;;;;;;;26.20;57.40;;;;;;1550770;75;1218;-57
2023/08/22 10:54:30;;;;;;;;;;;26.30;57.40;;;;;;1575396;75;1933;-57
2023/08/22 10:56:31;;;;;;;;;;;26.20;57.50;;;;;;1578320;75;1604;-54
2023/08/22 10:58:37;;;;;;;;;;;26.20;57.60;;;;;;1578032;75;785;-55
2023/08/22 11:00:39;;;;;;;;;;;26.20;57.70;;;;;;1564506;73;1126;-57
2023/08/22 11:02:43;;;;;;;;;;;26.20;57.70;;;;;;1578476;75;719;-57
2023/08/22 11:04:45;;;;;;;;;;;26.30;57.60;;;;;;1588442;74;771;-56
2023/08/22 11:06:47;;;;;;;;;;;26.20;57.70;;;;;;1570643;75;791;-55
2023/08/22 11:08:49;;;;;;;;;;;26.30;57.70;;;;;;1566614;73;1528;-54
2023/08/22 11:10:51;;;;;;;;;;;26.30;57.70;;;;;;1576187;73;1130;-55
2023/08/22 11:12:56;;;;;;;;;;;26.20;57.60;;;;;;1578310;75;751;-56
2023/08/22 11:14:58;;;;;;;;;;;26.20;57.80;;;;;;1578585;75;1937;-56
2023/08/22 11:17:02;;;;;;;;;;;26.20;57.80;;;;;;1575936;75;779;-56
2023/08/22 11:19:04;;;;;;;;;;;26.30;57.90;;;;;;1570922;73;1145;-55
2023/08/22 11:21:06;;;;;;;;;;;26.30;57.80;;;;;;1577706;75;785;-55
2023/08/22 11:23:08;;;;;;;;;;;26.20;57.90;;;;;;1573244;74;1546;-53
2023/08/22 11:25:10;;;;;;;;;;;26.30;57.90;;;;;;1564496;75;808;-55
2023/08/22 11:27:15;;;;;;;;;;;26.20;57.90;;;;;;1579944;75;800;-54
2023/08/22 11:29:20;;;;;;;;;;;26.20;58.10;;;;;;1582348;73;1125;-53
2023/08/22 11:31:20;;;;;;;;;;;26.30;57.80;;;;;;1567488;75;1893;-56
2023/08/22 11:33:23;;;;;;;;;;;26.20;58.10;;;;;;1569033;75;722;-56
2023/08/22 11:35:25;;;;;;;;;;;26.20;57.80;;;;;;1567197;74;1930;-55
2023/08/22 11:37:27;;;;;;;;;;;26.20;58.00;;;;;;1581828;75;1296;-56
2023/08/22 11:39:30;;;;;;;;;;;26.20;58.30;;;;;;1575240;74;1115;-55
2023/08/22 11:41:31;;;;;;;;;;;26.20;58.10;;;;;;1568714;75;772;-55
2023/08/22 11:43:33;;;;;;;;;;;26.20;58.30;;;;;;1575148;75;772;-55
2023/08/22 11:45:35;;;;;;;;;;;26.30;58.30;;;;;;1582303;75;797;-57
2023/08/22 11:47:41;;;;;;;;;;;26.20;58.40;;;;;;1560902;75;1108;-55
2023/08/22 11:49:42;;;;;;;;;;;26.20;58.40;;;;;;1580538;74;1119;-56
2023/08/22 11:51:45;;;;;;;;;;;26.20;58.30;;;;;;1584634;73;1487;-55
2023/08/22 11:53:47;;;;;;;;;;;26.20;58.40;;;;;;1571890;75;967;-57
2023/08/22 11:55:55;;;;;;;;;;;26.10;58.30;;;;;;1575179;75;1907;-57
2023/08/22 11:57:59;;;;;;;;;;;26.30;58.10;;;;;;1576255;75;1579;-57
2023/08/22 12:00:03;;;;;;;;;;;26.20;58.40;;;;;;1569424;73;1102;-56
2023/08/22 12:02:05;;;;;;;;;;;26.20;58.20;;;;;;1566314;75;739;-55
2023/08/22 12:04:07;;;;;;;;;;;26.20;58.20;;;;;;1585106;74;687;-56
2023/08/22 12:06:12;;;;;;;;;;;26.20;58.20;;;;;;1566293;75;1540;-54
2023/08/22 12:08:16;;;;;;;;;;;26.20;58.40;;;;;;1581840;75;829;-55